Flight Track Log - Related Links

Times and Time Zones

All times are in EDT time to prevent confusion due to time zone crossing. See the JBU1329 flight status page for this flight to view local times or setup timezone preferences in your user account.

Time Position Orientation Groundspeed Altitude Reporting Facility
EDT Latitude Longitude Course Direction KTS MPH feet Rate Location/Type
Mon 09:18:29 AM 42.3667 -70.9833 198° South 156 180 800  Level KA90
Mon 09:19:05 AM 42.3667 -70.9500 90° East 144 166 1,800 2,039 Climbing KA90
Mon 09:21:00 AM 42.2774 -70.6774 143° Southeast  Level FlightAware Approximate
Mon 09:21:02 AM 42.3883 -70.7844 80° East 241 277 6,000  Level Boston Center
Mon 09:22:00 AM 42.1839 -70.6252 160° South  Level FlightAware Approximate
Mon 09:22:02 AM 42.3392 -70.7042 130° Southeast 241 277 8,800  Level Boston Center
Mon 09:23:00 AM 42.0884 -70.6217 198° South  Level FlightAware Approximate
Mon 09:23:02 AM 42.2553 -70.6672 162° South 253 291 11,300  Level Boston Center
Mon 09:24:02 AM 42.1608 -70.6253 162° South 307 353 13,400 2,400 Climbing Boston Center
Mon 09:25:02 AM 42.0633 -70.6531 192° South 338 389 16,100 2,350 Climbing Boston Center
Mon 09:26:02 AM 41.9681 -70.6950 198° South 346 398 18,100 2,100 Climbing Boston Center
Mon 09:27:02 AM 41.8561 -70.7397 197° South 373 429 20,300 1,850 Climbing Boston Center
Mon 09:28:02 AM 41.7778 -70.7864 204° Southwest 383 441 21,800 1,600 Climbing Boston Center
Mon 09:29:02 AM 41.6789 -70.8725 213° Southwest 389 448 23,500 1,650 Climbing Boston Center
Mon 09:30:02 AM 41.5819 -70.9442 209° Southwest 394 453 25,100 1,450 Climbing Boston Center
Mon 09:31:02 AM 41.5019 -71.0431 223° Southwest 399 459 26,400 1,300 Climbing Boston Center
Mon 09:32:02 AM 41.4322 -71.1581 231° Southwest 393 452 27,700 1,450 Climbing Boston Center
Mon 09:33:02 AM 41.3586 -71.2731 230° Southwest 405 466 29,300 1,400 Climbing Boston Center
Mon 09:34:02 AM 41.2867 -71.3875 230° Southwest 405 466 30,500 1,350 Climbing Boston Center
Mon 09:35:02 AM 41.2211 -71.5047 233° Southwest 405 466 32,000 750 Climbing Boston Center
Mon 09:36:02 AM 41.1511 -71.6131 229° Southwest 400 460 32,000  Level Boston Center
Mon 09:37:02 AM 41.1042 -71.7542 246° West 405 466 32,000  Level Boston Center
Mon 09:38:02 AM 41.0592 -71.8922 247° West 405 466 32,000  Level Boston Center
Mon 09:39:02 AM 40.9931 -72.0386 239° Southwest 421 484 32,000  Level Boston Center
Mon 09:40:15 AM 40.8914 -72.1711 225° Southwest 421 484 32,000  Level Boston Center
Mon 09:41:14 AM 40.8103 -72.2728 224° Southwest 415 478 32,000  Level Boston Center
Mon 09:42:14 AM 40.7311 -72.3633 221° Southwest 415 478 32,000  Level Boston Center
Mon 09:43:14 AM 40.6456 -72.4728 224° Southwest 426 490 32,000  Level Boston Center
Mon 09:44:14 AM 40.5603 -72.5794 224° Southwest 426 490 32,000  Level Boston Center
Mon 09:45:14 AM 40.4767 -72.6856 224° Southwest 421 484 32,000  Level Boston Center
Mon 09:46:14 AM 40.3889 -72.7914 223° Southwest 421 484 32,000  Level Boston Center
Mon 09:47:58 AM 40.2372 -72.9856 224° Southwest 429 494 32,000  Level Washington Center
Mon 09:48:58 AM 40.1500 -73.0919 223° Southwest 429 494 32,000  Level Washington Center
Mon 09:49:59 AM 40.0644 -73.1978 223° Southwest 429 494 32,000  Level Washington Center
Mon 09:50:57 AM 39.9792 -73.3008 223° Southwest 429 494 32,000  Level Washington Center
Mon 09:51:58 AM 39.8936 -73.4064 223° Southwest 429 494 32,000  Level Washington Center
Mon 09:52:59 AM 39.8078 -73.5036 221° Southwest 429 494 32,000  Level Washington Center
Mon 09:54:00 AM 39.7242 -73.6114 225° Southwest 429 494 32,000 -203 Level Washington Center
Mon 09:54:57 AM 39.6361 -73.7133 222° Southwest 429 494 31,600 -706 Descending Washington Center
Mon 09:55:59 AM 39.5503 -73.8153 222° Southwest 429 494 30,600 -984 Descending Washington Center
Mon 09:56:59 AM 39.4664 -73.9222 225° Southwest 429 494 29,600 -992 Descending Washington Center
Mon 09:58:00 AM 39.3803 -74.0181 221° Southwest 429 494 28,600 -992 Descending Washington Center
Mon 09:59:00 AM 39.2961 -74.1247 224° Southwest 424 488 27,600 -1,525 Descending Washington Center
Mon 09:59:58 AM 39.2139 -74.2200 222° Southwest 418 481 25,600 -2,319 Descending Washington Center
Mon 10:00:59 AM 39.1272 -74.3125 220° Southwest 413 475 23,000 -2,678 Descending Washington Center
Mon 10:01:59 AM 39.0492 -74.4050 223° Southwest 403 464 20,200 -2,380 Descending Washington Center
Mon 10:03:00 AM 38.9728 -74.4917 221° Southwest 398 458 18,200 -1,091 Descending Washington Center
Mon 10:04:00 AM 38.9153 -74.5964 235° Southwest 392 451 18,000 -254 Descending Washington Center
Mon 10:04:58 AM 38.8997 -74.7194 261° West 361 415 17,700 -655 Descending Washington Center
Mon 10:05:59 AM 38.8733 -74.8425 255° West 361 415 16,700 -836 Descending Washington Center
Mon 10:07:00 AM 38.8533 -74.9653 258° West 356 410 16,000 -403 Descending Washington Center
Mon 10:07:58 AM 38.8372 -75.0853 260° West 356 410 15,900  Descending Washington Center
Mon 10:08:58 AM 38.8106 -75.2028 254° West 356 410 16,000 50 Climbing Washington Center
Mon 10:09:59 AM 38.7983 -75.3281 263° West 356 410 16,000 -49 Level Washington Center
Mon 10:11:00 AM 38.7861 -75.4506 263° West 356 410 15,900 -248 Descending Washington Center
Mon 10:12:00 AM 38.7819 -75.5731 268° West 351 404 15,500 -1,322 Descending Washington Center
Mon 10:12:58 AM 38.7797 -75.6956 269° West 351 404 13,300 -1,831 Descending Washington Center
Mon 10:13:58 AM 38.7964 -75.8128 280° West 344 396 11,900 -1,200 Descending Washington Center
Mon 10:14:58 AM 38.8211 -75.9219 286° West 334 384 10,900 -496 Descending Washington Center
Mon 10:15:59 AM 38.8269 -76.0286 274° West 321 369 10,900  Level Washington Center
Mon 10:16:57 AM 38.8475 -76.1275 285° West 302 348 10,900 -706 Level Washington Center
Mon 10:17:58 AM 38.8700 -76.2181 288° West 288 331 9,500 -1,587 Descending Washington Center
Mon 10:18:58 AM 38.8967 -76.3144 290° West 282 325 7,700 -1,892 Descending Washington Center
Mon 10:20:08 AM 38.9333 -76.4333 292° West 271 312 5,400 -1,292 Descending Potomac TRACON
Mon 10:21:08 AM 38.9500 -76.5167 284° West 269 310 4,900 -700 Descending Potomac TRACON
Mon 10:22:08 AM 38.9833 -76.6167 293° West 271 312 4,000 -474 Descending Potomac TRACON
Mon 10:23:02 AM 39.0167 -76.6833 303° West 271 312 4,000  Level Potomac TRACON
Mon 10:23:57 AM 39.0333 -76.7500 288° West 232 267 4,000 -522 Level Potomac TRACON
Mon 10:24:57 AM 39.0667 -76.8167 303° West 212 244 3,000 -500 Descending Potomac TRACON
Mon 10:25:57 AM 39.0833 -76.8833 288° West 208 239 3,000  Level Potomac TRACON
Mon 10:26:57 AM 39.1167 -76.9500 303° West 186 214 3,000  Level Potomac TRACON
Mon 10:27:57 AM 39.1667 -76.9500 360° North 205 236 3,000 -421 Level Potomac TRACON
Mon 10:28:51 AM 39.1833 -76.9000 67° East 189 217 2,200 -526 Descending Potomac TRACON
Mon 10:29:51 AM 39.1833 -76.8500 90° East 141 162 2,000 -250 Descending Potomac TRACON
Mon 10:30:51 AM 39.1833 -76.8000 90° East 143 165 1,700 -500 Descending Potomac TRACON
Mon 10:31:51 AM 39.1833 -76.7500 90° East 138 159 1,000 -700 Descending Potomac TRACON

Login

Don't have an account? Register now (free) for customized features, flight alerts, and more!